Time,TemperatureF,DewpointF,PressureIn,WindDirection,WindDirectionDegrees,WindSpeedMPH,WindSpeedGustMPH,Humidity,HourlyPrecipIn,Conditions,Clouds,dailyrainin,SoftwareType,DateUTC
2013-01-18 00:11:00,48.6,42.0,30.06,North,9,8.0,12.0,79,0.00,,,0.04,weatherlink.com 1.10,2013-01-18 05:11:00,
2013-01-18 00:26:00,48.6,43.0,30.07,North,10,6.0,22.0,80,0.00,,,0.04,weatherlink.com 1.10,2013-01-18 05:26:00,
2013-01-18 00:41:00,48.6,42.0,30.08,NNW,348,11.0,22.0,78,0.00,,,0.00,weatherlink.com 1.10,2013-01-18 05:41:00,
2013-01-18 00:56:00,48.8,43.0,30.08,NNW,337,17.0,24.0,81,0.00,,,0.00,weatherlink.com 1.10,2013-01-18 05:56:00,
2013-01-18 01:11:00,49.2,44.0,30.09,North,360,23.0,28.0,82,0.00,,,0.00,weatherlink.com 1.10,2013-01-18 06:11:00,
2013-01-18 01:26:00,49.0,43.0,30.12,North,360,26.0,33.0,80,0.00,,,0.00,weatherlink.com 1.10,2013-01-18 06:26:00,
2013-01-18 01:41:00,48.5,43.0,30.13,North,360,23.0,32.0,81,0.00,,,0.00,weatherlink.com 1.10,2013-01-18 06:41:00,
2013-01-18 01:56:00,48.3,42.0,30.15,North,9,30.0,35.0,80,0.00,,,0.00,weatherlink.com 1.10,2013-01-18 06:56:00,
2013-01-18 02:11:00,47.7,43.0,30.17,NNW,348,24.0,34.0,82,0.00,,,0.00,weatherlink.com 1.10,2013-01-18 07:11:00,
2013-01-18 02:26:00,48.1,44.0,30.18,North,360,30.0,32.0,84,0.00,,,0.00,weatherlink.com 1.10,2013-01-18 07:26:00,
2013-01-18 02:41:00,47.7,43.0,30.19,North,360,31.0,38.0,82,0.00,,,0.00,weatherlink.com 1.10,2013-01-18 07:41:00,
2013-01-18 02:57:00,47.5,43.0,30.19,North,360,28.0,37.0,84,0.00,,,0.00,weatherlink.com 1.10,2013-01-18 07:57:00,
2013-01-18 03:12:00,47.1,42.0,30.19,North,360,33.0,41.0,83,0.00,,,0.00,weatherlink.com 1.10,2013-01-18 08:12:00,
2013-01-18 03:27:00,46.9,42.0,30.20,North,355,23.0,33.0,83,0.00,,,0.00,weatherlink.com 1.10,2013-01-18 08:27:00,
2013-01-18 03:42:00,46.9,41.0,30.21,North,355,25.0,32.0,81,0.00,,,0.00,weatherlink.com 1.10,2013-01-18 08:42:00,
2013-01-18 03:57:00,46.5,41.0,30.23,North,5,23.0,35.0,82,0.00,,,0.00,weatherlink.com 1.10,2013-01-18 08:57:00,
2013-01-18 04:12:00,46.3,41.0,30.24,North,355,24.0,37.0,82,0.00,,,0.00,weatherlink.com 1.10,2013-01-18 09:12:00,
2013-01-18 04:27:00,45.9,41.0,30.24,North,360,25.0,32.0,82,0.00,,,0.00,weatherlink.com 1.10,2013-01-18 09:27:00,
2013-01-18 04:42:00,46.0,41.0,30.25,North,355,23.0,33.0,83,0.00,,,0.00,weatherlink.com 1.10,2013-01-18 09:42:00,
2013-01-18 04:57:00,45.6,41.0,30.26,North,360,25.0,32.0,84,0.00,,,0.00,weatherlink.com 1.10,2013-01-18 09:57:00,
2013-01-18 05:12:00,44.7,40.0,30.27,North,360,21.0,28.0,84,0.00,,,0.00,weatherlink.com 1.10,2013-01-18 10:12:00,
2013-01-18 05:27:00,44.4,40.0,30.28,North,360,19.0,27.0,83,0.00,,,0.00,weatherlink.com 1.10,2013-01-18 10:27:00,
2013-01-18 05:42:00,44.3,39.0,30.29,North,355,19.0,27.0,83,0.00,,,0.00,weatherlink.com 1.10,2013-01-18 10:42:00,
2013-01-18 05:57:00,44.3,40.0,30.30,North,355,20.0,26.0,84,0.00,,,0.00,weatherlink.com 1.10,2013-01-18 10:57:00,
2013-01-18 06:12:00,43.8,40.0,30.31,NNW,346,18.0,24.0,85,0.00,,,0.00,weatherlink.com 1.10,2013-01-18 11:12:00,
2013-01-18 06:27:00,43.6,39.0,30.32,North,355,17.0,22.0,84,0.00,,,0.00,weatherlink.com 1.10,2013-01-18 11:27:00,
2013-01-18 06:42:00,43.6,39.0,30.33,North,355,15.0,22.0,84,0.00,,,0.00,weatherlink.com 1.10,2013-01-18 11:42:00,
2013-01-18 06:57:00,43.4,40.0,30.34,North,355,15.0,20.0,86,0.00,,,0.00,weatherlink.com 1.10,2013-01-18 11:57:00,
2013-01-18 07:12:00,42.7,39.0,30.35,North,355,20.0,23.0,86,0.00,,,0.00,weatherlink.com 1.10,2013-01-18 12:12:00,
2013-01-18 07:27:00,42.4,39.0,30.36,North,360,16.0,22.0,86,0.00,,,0.00,weatherlink.com 1.10,2013-01-18 12:27:00,
2013-01-18 07:42:00,42.7,39.0,30.37,North,355,13.0,22.0,86,0.00,,,0.00,weatherlink.com 1.10,2013-01-18 12:42:00,
2013-01-18 07:58:00,42.5,38.0,30.38,North,360,19.0,21.0,85,0.00,,,0.00,weatherlink.com 1.10,2013-01-18 12:58:00,
2013-01-18 08:13:00,42.7,39.0,30.39,North,350,19.0,21.0,85,0.00,,,0.00,weatherlink.com 1.10,2013-01-18 13:13:00,
2013-01-18 08:28:00,42.9,39.0,30.40,North,360,19.0,22.0,85,0.00,,,0.00,weatherlink.com 1.10,2013-01-18 13:28:00,
2013-01-18 08:43:00,42.9,39.0,30.41,North,360,14.0,22.0,86,0.00,,,0.00,weatherlink.com 1.10,2013-01-18 13:43:00,
2013-01-18 08:58:00,43.2,39.0,30.41,North,360,18.0,20.0,85,0.00,,,0.00,weatherlink.com 1.10,2013-01-18 13:58:00,
2013-01-18 09:13:00,43.8,39.0,30.43,North,355,18.0,22.0,84,0.00,,,0.00,weatherlink.com 1.10,2013-01-18 14:13:00,
2013-01-18 09:28:00,43.9,39.0,30.43,North,351,18.0,23.0,82,0.00,,,0.00,weatherlink.com 1.10,2013-01-18 14:28:00,
2013-01-18 09:43:00,44.5,38.0,30.44,North,360,21.0,24.0,79,0.00,,,0.00,weatherlink.com 1.10,2013-01-18 14:43:00,
2013-01-18 09:58:00,45.0,38.0,30.45,North,360,16.0,23.0,76,0.00,,,0.00,weatherlink.com 1.10,2013-01-18 14:58:00,
2013-01-18 10:13:00,45.2,38.0,30.45,North,360,16.0,23.0,76,0.00,,,0.00,weatherlink.com 1.10,2013-01-18 15:13:00,
2013-01-18 10:28:00,46.3,38.0,30.46,North,355,12.0,21.0,74,0.00,,,0.00,weatherlink.com 1.10,2013-01-18 15:28:00,
2013-01-18 10:58:00,46.9,36.0,30.46,North,360,14.0,23.0,66,0.00,,,0.00,weatherlink.com 1.10,2013-01-18 15:58:00,
2013-01-18 11:13:00,47.5,35.0,30.46,North,360,13.0,18.0,63,0.00,,,0.00,weatherlink.com 1.10,2013-01-18 16:13:00,
2013-01-18 11:28:00,48.1,35.0,30.45,North,355,13.0,20.0,60,0.00,,,0.00,weatherlink.com 1.10,2013-01-18 16:28:00,
2013-01-18 11:43:00,49.2,35.0,30.45,North,355,17.0,21.0,58,0.00,,,0.00,weatherlink.com 1.10,2013-01-18 16:43:00,
2013-01-18 11:58:00,49.1,31.0,30.45,North,355,15.0,21.0,51,0.00,,,0.00,weatherlink.com 1.10,2013-01-18 16:58:00,
2013-01-18 12:13:00,49.5,32.0,30.44,North,355,19.0,19.0,52,0.00,,,0.00,weatherlink.com 1.10,2013-01-18 17:13:00,
2013-01-18 12:28:00,50.1,33.0,30.43,North,355,14.0,18.0,53,0.00,,,0.00,weatherlink.com 1.10,2013-01-18 17:28:00,
2013-01-18 12:43:00,50.3,33.0,30.43,North,360,9.0,17.0,52,0.00,,,0.00,weatherlink.com 1.10,2013-01-18 17:43:00,
2013-01-18 12:58:00,50.8,34.0,30.43,North,355,15.0,18.0,52,0.00,,,0.00,weatherlink.com 1.10,2013-01-18 17:58:00,
2013-01-18 13:13:00,51.0,34.0,30.42,North,355,17.0,17.0,52,0.00,,,0.00,weatherlink.com 1.10,2013-01-18 18:13:00,
2013-01-18 13:28:00,51.1,32.0,30.42,North,360,16.0,17.0,48,0.00,,,0.00,weatherlink.com 1.10,2013-01-18 18:28:00,
2013-01-18 13:43:00,51.5,32.0,30.41,North,355,13.0,18.0,48,0.00,,,0.00,weatherlink.com 1.10,2013-01-18 18:43:00,
2013-01-18 13:58:00,51.8,34.0,30.41,North,355,16.0,17.0,50,0.00,,,0.00,weatherlink.com 1.10,2013-01-18 18:58:00,
2013-01-18 14:13:00,52.1,34.0,30.41,North,360,14.0,17.0,51,0.00,,,0.00,weatherlink.com 1.10,2013-01-18 19:13:00,
2013-01-18 14:28:00,52.5,32.0,30.41,North,360,14.0,17.0,45,0.00,,,0.00,weatherlink.com 1.10,2013-01-18 19:28:00,
2013-01-18 14:43:00,52.9,35.0,30.41,North,355,7.0,17.0,51,0.00,,,0.00,weatherlink.com 1.10,2013-01-18 19:43:00,
2013-01-18 14:58:00,53.2,32.0,30.42,North,355,12.0,17.0,44,0.00,,,0.00,weatherlink.com 1.10,2013-01-18 19:58:00,
2013-01-18 15:13:00,53.4,29.0,30.42,North,360,13.0,18.0,40,0.00,,,0.00,weatherlink.com 1.10,2013-01-18 20:13:00,
2013-01-18 15:28:00,53.7,31.0,30.42,North,360,10.0,17.0,43,0.00,,,0.00,weatherlink.com 1.10,2013-01-18 20:28:00,
2013-01-18 15:43:00,54.0,33.0,30.43,North,360,15.0,16.0,45,0.00,,,0.00,weatherlink.com 1.10,2013-01-18 20:43:00,
2013-01-18 15:58:00,53.9,31.0,30.43,North,355,11.0,14.0,42,0.00,,,0.00,weatherlink.com 1.10,2013-01-18 20:58:00,
2013-01-18 16:13:00,54.2,33.0,30.43,North,355,9.0,15.0,45,0.00,,,0.00,weatherlink.com 1.10,2013-01-18 21:13:00,
2013-01-18 16:28:00,54.3,35.0,30.44,North,360,14.0,17.0,48,0.00,,,0.00,weatherlink.com 1.10,2013-01-18 21:28:00,
2013-01-18 16:43:00,54.1,33.0,30.44,North,360,10.0,14.0,45,0.00,,,0.00,weatherlink.com 1.10,2013-01-18 21:43:00,
2013-01-18 16:58:00,54.0,32.0,30.45,North,355,12.0,16.0,43,0.00,,,0.00,weatherlink.com 1.10,2013-01-18 21:58:00,
2013-01-18 17:13:00,53.8,33.0,30.45,North,355,12.0,15.0,45,0.00,,,0.00,weatherlink.com 1.10,2013-01-18 22:13:00,
2013-01-18 17:28:00,53.6,33.0,30.46,North,355,14.0,16.0,46,0.00,,,0.00,weatherlink.com 1.10,2013-01-18 22:28:00,
2013-01-18 17:43:00,53.1,32.0,30.46,North,360,11.0,13.0,44,0.00,,,0.00,weatherlink.com 1.10,2013-01-18 22:43:00,
2013-01-18 17:58:00,52.7,32.0,30.46,North,355,11.0,13.0,45,0.00,,,0.00,weatherlink.com 1.10,2013-01-18 22:58:00,
2013-01-18 18:13:00,52.4,31.0,30.46,North,355,13.0,15.0,45,0.00,,,0.00,weatherlink.com 1.10,2013-01-18 23:13:00,
2013-01-18 18:28:00,52.1,32.0,30.46,North,355,13.0,14.0,47,0.00,,,0.00,weatherlink.com 1.10,2013-01-18 23:28:00,
2013-01-18 18:43:00,51.7,33.0,30.47,North,355,11.0,15.0,49,0.00,,,0.00,weatherlink.com 1.10,2013-01-18 23:43:00,
2013-01-18 18:59:00,51.5,34.0,30.48,North,355,11.0,13.0,51,0.00,,,0.00,weatherlink.com 1.10,2013-01-18 23:59:00,
2013-01-18 19:14:00,50.8,34.0,30.48,North,355,10.0,13.0,52,0.00,,,0.00,weatherlink.com 1.10,2013-01-19 00:14:00,
2013-01-18 19:29:00,50.6,33.0,30.49,North,355,8.0,11.0,52,0.00,,,0.00,weatherlink.com 1.10,2013-01-19 00:29:00,
2013-01-18 19:44:00,50.1,33.0,30.49,North,355,9.0,12.0,53,0.00,,,0.00,weatherlink.com 1.10,2013-01-19 00:44:00,
2013-01-18 19:59:00,49.9,34.0,30.49,North,355,7.0,10.0,55,0.00,,,0.00,weatherlink.com 1.10,2013-01-19 00:59:00,
2013-01-18 20:14:00,49.4,35.0,30.49,North,355,8.0,10.0,58,0.00,,,0.00,weatherlink.com 1.10,2013-01-19 01:14:00,
2013-01-18 20:29:00,49.4,36.0,30.50,North,355,7.0,10.0,60,0.00,,,0.00,weatherlink.com 1.10,2013-01-19 01:29:00,
2013-01-18 20:44:00,49.0,36.0,30.49,North,355,8.0,10.0,62,0.00,,,0.00,weatherlink.com 1.10,2013-01-19 01:44:00,
2013-01-18 20:59:00,48.7,36.0,30.49,North,355,9.0,10.0,62,0.00,,,0.00,weatherlink.com 1.10,2013-01-19 01:59:00,
2013-01-18 21:14:00,48.8,36.0,30.49,North,355,11.0,13.0,61,0.00,,,0.00,weatherlink.com 1.10,2013-01-19 02:14:00,
2013-01-18 21:29:00,47.9,34.0,30.49,North,355,12.0,14.0,58,0.00,,,0.00,weatherlink.com 1.10,2013-01-19 02:29:00,
2013-01-18 21:44:00,47.8,34.0,30.49,North,355,11.0,14.0,60,0.00,,,0.00,weatherlink.com 1.10,2013-01-19 02:44:00,
2013-01-18 21:59:00,47.5,33.0,30.49,North,355,15.0,16.0,58,0.00,,,0.00,weatherlink.com 1.10,2013-01-19 02:59:00,
2013-01-18 22:14:00,47.4,34.0,30.48,North,349,13.0,15.0,61,0.00,,,0.00,weatherlink.com 1.10,2013-01-19 03:14:00,
2013-01-18 22:29:00,47.1,35.0,30.48,North,350,12.0,16.0,62,0.00,,,0.00,weatherlink.com 1.10,2013-01-19 03:29:00,
2013-01-18 22:44:00,47.1,34.0,30.48,North,355,13.0,15.0,61,0.00,,,0.00,weatherlink.com 1.10,2013-01-19 03:44:00,
2013-01-18 22:59:00,47.0,36.0,30.48,North,355,12.0,16.0,66,0.00,,,0.00,weatherlink.com 1.10,2013-01-19 03:59:00,
2013-01-18 23:14:00,46.8,35.0,30.48,North,355,11.0,16.0,65,0.00,,,0.00,weatherlink.com 1.10,2013-01-19 04:14:00,
2013-01-18 23:29:00,46.5,36.0,30.47,North,355,13.0,15.0,66,0.00,,,0.00,weatherlink.com 1.10,2013-01-19 04:29:00,
2013-01-18 23:44:00,46.5,35.0,30.46,North,355,18.0,18.0,64,0.00,,,0.00,weatherlink.com 1.10,2013-01-19 04:44:00,
2013-01-18 23:59:00,46.9,36.0,30.46,North,355,16.0,18.0,66,0.00,,,0.00,weatherlink.com 1.10,2013-01-19 04:59:00,